Time;durP1;ratioP1;P1;durP2;ratioP2;P2;SDS_P1;SDS_P2;PMS_P1;PMS_P2;Temp;Humidity;BMP_temperature;BMP_pressure;BME280_temperature;BME280_humidity;BME280_pressure;Samples;Min_cycle;Max_cycle;Signal;HPM_P1;HPM_P2
2022/04/03 00:00:44;;;;;;;;;;;-0.80;99.90;;;;;;5095178;28;19924;-59
2022/04/03 00:03:10;;;;;;;;;;;-0.80;99.90;;;;;;5094993;28;19924;-59
2022/04/03 00:05:39;;;;;;;;;;;-0.70;99.90;;;;;;5095926;28;19924;-59
2022/04/03 00:08:06;;;;;;;;;;;-0.70;99.90;;;;;;5093724;28;19924;-59
2022/04/03 00:10:33;;;;;;;;;;;-0.60;99.90;;;;;;5096167;28;19924;-60
2022/04/03 00:12:58;;;;;;;;;;;-0.50;99.90;;;;;;5095825;28;19928;-59
2022/04/03 00:15:24;;;;;;;;;;;-0.50;99.90;;;;;;5111914;28;20011;-59
2022/04/03 00:17:50;;;;;;;;;;;-0.50;99.90;;;;;;5116629;28;19924;-59
2022/04/03 00:20:16;;;;;;;;;;;-0.60;99.90;;;;;;5116306;28;19977;-59
2022/04/03 00:22:47;;;;;;;;;;;-0.80;99.90;;;;;;5105465;28;20401;-59
2022/04/03 00:25:15;;;;;;;;;;;-0.90;99.90;;;;;;5095748;28;19977;-59
2022/04/03 00:27:40;;;;;;;;;;;-1.00;99.90;;;;;;5095901;28;19924;-59
2022/04/03 00:30:06;;;;;;;;;;;-1.00;99.90;;;;;;5094454;28;20451;-59
2022/04/03 00:32:32;;;;;;;;;;;-1.10;99.90;;;;;;5095652;28;19924;-59
2022/04/03 00:34:58;;;;;;;;;;;-1.10;99.90;;;;;;5095722;28;19953;-59
2022/04/03 00:37:24;;;;;;;;;;;-1.10;99.90;;;;;;5093104;28;20382;-59
2022/04/03 00:39:49;;;;;;;;;;;-0.80;99.90;;;;;;5095356;28;19939;-59
2022/04/03 00:42:15;;;;;;;;;;;-1.10;99.90;;;;;;5095810;28;19924;-59
2022/04/03 00:44:41;;;;;;;;;;;-1.10;99.90;;;;;;5094133;28;19930;-59
2022/04/03 00:47:07;;;;;;;;;;;-1.10;99.90;;;;;;5095526;28;19970;-59
2022/04/03 00:49:32;;;;;;;;;;;-1.00;99.90;;;;;;5094891;28;19925;-59
2022/04/03 00:51:58;;;;;;;;;;;-0.90;99.90;;;;;;5094475;28;20364;-59
2022/04/03 00:54:24;;;;;;;;;;;-0.80;99.90;;;;;;5095389;28;19924;-59
2022/04/03 00:56:49;;;;;;;;;;;-0.70;99.90;;;;;;5095094;28;19925;-59
2022/04/03 00:59:15;;;;;;;;;;;-0.70;99.90;;;;;;5094077;28;19924;-59
2022/04/03 01:01:42;;;;;;;;;;;-0.70;99.90;;;;;;5095029;28;19931;-59
2022/04/03 01:04:10;;;;;;;;;;;-0.50;99.90;;;;;;5093804;28;20328;-59
2022/04/03 01:06:35;;;;;;;;;;;-0.40;99.90;;;;;;5076132;28;19969;-59
2022/04/03 01:09:01;;;;;;;;;;;-0.40;99.90;;;;;;5094988;28;20333;-59
2022/04/03 01:11:27;;;;;;;;;;;-0.30;99.90;;;;;;5092734;28;19974;-59
2022/04/03 01:13:53;;;;;;;;;;;-0.20;99.90;;;;;;5099010;28;19966;-59
2022/04/03 01:16:19;;;;;;;;;;;-0.10;99.90;;;;;;5101466;28;19924;-59
2022/04/03 01:18:45;;;;;;;;;;;-0.10;99.90;;;;;;5094319;28;19924;-59
2022/04/03 01:21:10;;;;;;;;;;;-0.10;99.90;;;;;;5092916;28;19931;-59
2022/04/03 01:23:36;;;;;;;;;;;-0.10;99.90;;;;;;5094444;28;19978;-59
2022/04/03 01:26:02;;;;;;;;;;;-0.10;99.90;;;;;;5093705;28;19942;-59
2022/04/03 01:28:27;;;;;;;;;;;-0.10;99.90;;;;;;5094163;28;19936;-59
2022/04/03 01:30:53;;;;;;;;;;;-0.10;99.90;;;;;;5093559;28;19924;-59
2022/04/03 01:33:19;;;;;;;;;;;-0.10;99.90;;;;;;5093554;28;20286;-59
2022/04/03 01:35:45;;;;;;;;;;;-0.10;99.90;;;;;;5092741;28;19931;-59
2022/04/03 01:38:11;;;;;;;;;;;-0.10;99.90;;;;;;5094514;28;19924;-59
2022/04/03 01:40:37;;;;;;;;;;;-0.10;99.90;;;;;;5093702;28;19930;-59
2022/04/03 01:43:03;;;;;;;;;;;-0.10;99.90;;;;;;5093545;28;19924;-59
2022/04/03 01:45:29;;;;;;;;;;;-0.10;99.90;;;;;;5094790;28;19924;-59
2022/04/03 01:47:54;;;;;;;;;;;0.10;99.90;;;;;;5107922;28;19928;-59
2022/04/03 01:50:20;;;;;;;;;;;-0.10;99.90;;;;;;5077509;28;19931;-59
2022/04/03 01:52:45;;;;;;;;;;;0.00;99.90;;;;;;5092975;28;19920;-59
2022/04/03 01:55:11;;;;;;;;;;;0.10;99.90;;;;;;5093506;28;19994;-59
2022/04/03 01:57:37;;;;;;;;;;;0.10;99.90;;;;;;5093785;28;19924;-59
2022/04/03 02:00:06;;;;;;;;;;;0.10;99.90;;;;;;5093444;28;20286;-59
2022/04/03 02:02:32;;;;;;;;;;;0.10;99.90;;;;;;5093395;28;19924;-59
2022/04/03 02:04:58;;;;;;;;;;;0.10;99.90;;;;;;5094019;28;19924;-59
2022/04/03 02:07:24;;;;;;;;;;;0.00;99.90;;;;;;5092890;28;19946;-59
2022/04/03 02:09:50;;;;;;;;;;;-0.10;99.90;;;;;;5093782;28;19969;-59
2022/04/03 02:12:16;;;;;;;;;;;-0.20;99.90;;;;;;5092115;28;20026;-59
2022/04/03 02:14:41;;;;;;;;;;;-0.20;99.90;;;;;;5103831;28;20438;-59
2022/04/03 02:17:07;;;;;;;;;;;-0.30;99.90;;;;;;5109857;28;20305;-59
2022/04/03 02:19:32;;;;;;;;;;;-0.30;99.90;;;;;;5093543;28;19931;-59
2022/04/03 02:21:58;;;;;;;;;;;-0.30;99.90;;;;;;5092788;28;19938;-59
2022/04/03 02:24:24;;;;;;;;;;;-0.20;99.90;;;;;;5093274;28;19928;-59
2022/04/03 02:26:49;;;;;;;;;;;0.00;99.90;;;;;;5092194;28;19931;-59
2022/04/03 02:29:15;;;;;;;;;;;0.10;99.90;;;;;;5092581;28;20019;-59
2022/04/03 02:31:41;;;;;;;;;;;0.30;99.90;;;;;;5114112;28;20284;-59
2022/04/03 02:34:07;;;;;;;;;;;0.40;99.90;;;;;;5103122;28;19969;-60
2022/04/03 02:36:33;;;;;;;;;;;0.50;99.90;;;;;;5090759;28;19920;-59
2022/04/03 02:38:58;;;;;;;;;;;0.60;99.90;;;;;;5093225;28;19977;-59
2022/04/03 02:41:24;;;;;;;;;;;0.60;99.90;;;;;;5093471;28;19924;-59
2022/04/03 02:43:50;;;;;;;;;;;0.60;99.90;;;;;;5090542;28;19920;-59
2022/04/03 02:46:15;;;;;;;;;;;0.60;99.90;;;;;;5103555;28;19949;-59
2022/04/03 02:48:41;;;;;;;;;;;0.70;99.90;;;;;;5098833;28;19994;-59
2022/04/03 02:51:07;;;;;;;;;;;0.70;99.90;;;;;;5071917;28;19921;-59
2022/04/03 02:53:32;;;;;;;;;;;0.80;99.90;;;;;;5085359;28;19928;-59
2022/04/03 02:55:58;;;;;;;;;;;0.80;99.90;;;;;;5093011;28;19924;-59
2022/04/03 02:58:24;;;;;;;;;;;0.90;99.90;;;;;;5092317;28;19939;-59
2022/04/03 03:00:49;;;;;;;;;;;0.90;99.90;;;;;;5093289;28;19927;-59
2022/04/03 03:03:15;;;;;;;;;;;0.90;99.90;;;;;;5091509;28;19927;-59
2022/04/03 03:05:42;;;;;;;;;;;1.00;99.90;;;;;;5092112;28;20015;-59
2022/04/03 03:08:08;;;;;;;;;;;1.00;99.90;;;;;;5093118;28;20016;-59
2022/04/03 03:10:33;;;;;;;;;;;1.30;99.90;;;;;;5091627;28;19972;-60
2022/04/03 03:12:59;;;;;;;;;;;1.20;99.90;;;;;;5091615;28;19972;-59
2022/04/03 03:15:25;;;;;;;;;;;1.30;99.90;;;;;;5091685;28;19946;-59
2022/04/03 03:17:50;;;;;;;;;;;1.30;99.90;;;;;;5090989;28;19924;-59
2022/04/03 03:20:16;;;;;;;;;;;1.30;99.90;;;;;;5092256;28;19924;-59
2022/04/03 03:22:42;;;;;;;;;;;1.30;99.90;;;;;;5098732;28;19920;-59
2022/04/03 03:25:11;;;;;;;;;;;1.40;99.90;;;;;;5091354;28;21308;-59
2022/04/03 03:27:38;;;;;;;;;;;1.30;99.90;;;;;;5094982;28;20373;-59
2022/04/03 03:30:05;;;;;;;;;;;1.30;99.90;;;;;;5094701;28;20374;-59
2022/04/03 03:32:32;;;;;;;;;;;1.30;99.90;;;;;;5096093;28;20356;-59
2022/04/03 03:34:58;;;;;;;;;;;1.40;99.90;;;;;;5096484;28;19928;-59
2022/04/03 03:37:23;;;;;;;;;;;1.30;99.90;;;;;;5096349;28;19924;-59
2022/04/03 03:39:49;;;;;;;;;;;1.20;99.90;;;;;;5095792;28;19942;-59
2022/04/03 03:42:15;;;;;;;;;;;1.20;99.90;;;;;;5096604;28;20001;-59
2022/04/03 03:44:41;;;;;;;;;;;1.10;99.90;;;;;;5096899;28;19931;-59
2022/04/03 03:47:07;;;;;;;;;;;1.10;99.90;;;;;;5094230;28;19967;-59
2022/04/03 03:49:35;;;;;;;;;;;1.10;99.90;;;;;;5089949;28;19939;-59
2022/04/03 03:52:01;;;;;;;;;;;1.10;99.90;;;;;;5076039;28;19928;-59
2022/04/03 03:54:26;;;;;;;;;;;1.10;99.90;;;;;;5077648;28;19924;-59
2022/04/03 03:56:52;;;;;;;;;;;1.10;99.90;;;;;;5094595;28;19928;-59
2022/04/03 03:59:18;;;;;;;;;;;1.10;99.90;;;;;;5094868;28;19924;-59
2022/04/03 04:01:43;;;;;;;;;;;1.00;99.90;;;;;;5077181;28;19925;-59
2022/04/03 04:04:09;;;;;;;;;;;1.00;99.90;;;;;;5084647;28;19924;-59
2022/04/03 04:06:34;;;;;;;;;;;1.00;99.90;;;;;;5096064;28;19931;-59
2022/04/03 04:09:00;;;;;;;;;;;1.00;99.90;;;;;;5095299;28;20070;-59
2022/04/03 04:11:26;;;;;;;;;;;0.90;99.90;;;;;;5094345;28;19924;-59
2022/04/03 04:13:51;;;;;;;;;;;0.90;99.90;;;;;;5093870;28;19947;-59
2022/04/03 04:16:17;;;;;;;;;;;0.90;99.90;;;;;;5096148;28;19924;-59
2022/04/03 04:18:43;;;;;;;;;;;0.90;99.90;;;;;;5095708;28;20374;-59
2022/04/03 04:21:10;;;;;;;;;;;0.90;99.90;;;;;;5094601;28;19931;-60
2022/04/03 04:23:36;;;;;;;;;;;1.00;99.90;;;;;;5101650;28;19930;-59
2022/04/03 04:26:01;;;;;;;;;;;1.00;99.90;;;;;;5095653;28;19924;-59
2022/04/03 04:28:27;;;;;;;;;;;0.90;99.90;;;;;;5095151;28;20434;-60
2022/04/03 04:30:54;;;;;;;;;;;0.90;99.90;;;;;;5095516;28;19924;-59
2022/04/03 04:33:20;;;;;;;;;;;0.90;99.90;;;;;;5095296;28;19935;-60
2022/04/03 04:35:45;;;;;;;;;;;0.90;99.90;;;;;;5094786;28;19924;-60
2022/04/03 04:38:11;;;;;;;;;;;0.80;99.90;;;;;;5094485;28;20472;-59
2022/04/03 04:40:36;;;;;;;;;;;0.80;99.90;;;;;;5094729;28;20290;-59
2022/04/03 04:43:02;;;;;;;;;;;0.70;99.90;;;;;;5093510;28;19924;-59
2022/04/03 04:45:28;;;;;;;;;;;0.70;99.90;;;;;;5095679;28;19935;-59
2022/04/03 04:47:59;;;;;;;;;;;0.60;99.90;;;;;;5093556;28;19969;-59
2022/04/03 04:50:25;;;;;;;;;;;0.60;99.90;;;;;;5077239;28;19924;-59
2022/04/03 04:52:51;;;;;;;;;;;0.50;99.90;;;;;;5075068;28;20003;-59
2022/04/03 04:55:19;;;;;;;;;;;0.40;99.90;;;;;;5075164;28;20357;-59
2022/04/03 04:58:03;;;;;;;;;;;0.40;99.90;;;;;;5087620;28;19924;-59
2022/04/03 05:00:30;;;;;;;;;;;0.30;99.90;;;;;;5095270;28;19927;-59
2022/04/03 05:02:56;;;;;;;;;;;0.30;99.90;;;;;;5094634;28;19924;-59
2022/04/03 05:05:22;;;;;;;;;;;0.20;99.90;;;;;;5094313;28;20393;-59
2022/04/03 05:07:49;;;;;;;;;;;0.20;99.90;;;;;;5095115;28;20289;-59
2022/04/03 05:10:16;;;;;;;;;;;0.60;99.90;;;;;;5093521;28;20007;-60
2022/04/03 05:12:43;;;;;;;;;;;0.40;99.90;;;;;;5093633;28;20340;-59
2022/04/03 05:15:11;;;;;;;;;;;0.50;99.90;;;;;;5094493;28;19935;-59
2022/04/03 05:17:37;;;;;;;;;;;0.60;99.90;;;;;;5093647;28;19924;-60
2022/04/03 05:20:03;;;;;;;;;;;0.60;99.90;;;;;;5094847;28;20010;-59
2022/04/03 05:22:29;;;;;;;;;;;0.50;99.90;;;;;;5100513;28;20588;-59
2022/04/03 05:24:55;;;;;;;;;;;0.40;99.90;;;;;;5093503;28;19993;-60
2022/04/03 05:27:21;;;;;;;;;;;0.40;99.90;;;;;;5094224;28;19978;-60
2022/04/03 05:29:46;;;;;;;;;;;0.40;99.90;;;;;;5094621;28;19924;-59
2022/04/03 05:32:12;;;;;;;;;;;0.40;99.90;;;;;;5093357;28;19927;-59
2022/04/03 05:34:37;;;;;;;;;;;0.40;99.90;;;;;;5094314;28;20385;-59
2022/04/03 05:37:03;;;;;;;;;;;0.40;99.90;;;;;;5094749;28;19923;-59
2022/04/03 05:39:29;;;;;;;;;;;0.40;99.90;;;;;;5093734;28;19992;-59
2022/04/03 05:41:55;;;;;;;;;;;0.30;99.90;;;;;;5093732;28;20369;-60
2022/04/03 05:44:21;;;;;;;;;;;0.40;99.90;;;;;;5094455;28;20013;-59
2022/04/03 05:46:48;;;;;;;;;;;0.40;99.90;;;;;;5092029;28;20056;-59
2022/04/03 05:49:14;;;;;;;;;;;0.50;99.90;;;;;;5087520;28;19959;-59
2022/04/03 05:51:40;;;;;;;;;;;0.60;99.90;;;;;;5094392;28;19927;-59
2022/04/03 05:54:06;;;;;;;;;;;0.60;99.90;;;;;;5093372;28;20019;-60
2022/04/03 05:56:31;;;;;;;;;;;0.60;99.90;;;;;;5093891;28;19931;-59
2022/04/03 05:58:57;;;;;;;;;;;0.60;99.90;;;;;;5093488;28;19959;-59
2022/04/03 06:01:23;;;;;;;;;;;0.60;99.90;;;;;;5093355;28;20336;-59
2022/04/03 06:03:49;;;;;;;;;;;0.60;99.90;;;;;;5093825;28;19935;-59
2022/04/03 06:06:15;;;;;;;;;;;0.60;99.90;;;;;;5093891;28;20008;-59
2022/04/03 06:08:41;;;;;;;;;;;0.60;99.90;;;;;;5093012;28;19924;-59
2022/04/03 06:11:07;;;;;;;;;;;0.60;99.90;;;;;;5093422;28;19924;-59
2022/04/03 06:13:32;;;;;;;;;;;0.60;99.90;;;;;;5093215;28;19955;-59
2022/04/03 06:15:58;;;;;;;;;;;0.60;99.90;;;;;;5091935;28;20394;-60
2022/04/03 06:18:24;;;;;;;;;;;0.70;99.90;;;;;;5092051;28;19950;-59
2022/04/03 06:20:50;;;;;;;;;;;0.70;99.90;;;;;;5091477;28;19970;-59
2022/04/03 06:23:17;;;;;;;;;;;0.80;99.90;;;;;;5099482;28;19964;-59
2022/04/03 06:25:44;;;;;;;;;;;0.90;99.90;;;;;;5091686;28;19931;-60
2022/04/03 06:28:10;;;;;;;;;;;1.00;99.90;;;;;;5091499;28;19947;-59
2022/04/03 06:30:36;;;;;;;;;;;1.10;99.90;;;;;;5093672;28;19936;-59
2022/04/03 06:33:01;;;;;;;;;;;1.20;99.90;;;;;;5093422;28;20438;-59
2022/04/03 06:35:27;;;;;;;;;;;1.30;99.90;;;;;;5092447;28;19924;-59
2022/04/03 06:37:52;;;;;;;;;;;1.40;99.90;;;;;;5092122;28;20032;-59
2022/04/03 06:40:18;;;;;;;;;;;1.50;99.90;;;;;;5093176;28;19924;-59
2022/04/03 06:42:44;;;;;;;;;;;1.60;99.90;;;;;;5092566;28;20385;-59
2022/04/03 06:45:10;;;;;;;;;;;1.70;99.90;;;;;;5093133;28;19931;-59
2022/04/03 06:47:36;;;;;;;;;;;1.80;99.90;;;;;;5093094;28;19930;-59
2022/04/03 06:50:03;;;;;;;;;;;1.90;99.90;;;;;;5076432;28;19925;-59
2022/04/03 06:52:28;;;;;;;;;;;2.20;99.90;;;;;;5085703;28;20388;-59
2022/04/03 06:54:54;;;;;;;;;;;2.10;99.90;;;;;;5093131;28;19936;-59
2022/04/03 06:57:20;;;;;;;;;;;2.20;99.90;;;;;;5092394;28;19925;-59
2022/04/03 06:59:46;;;;;;;;;;;2.30;99.90;;;;;;5093020;28;20378;-59
2022/04/03 07:02:11;;;;;;;;;;;2.40;99.90;;;;;;5096375;28;19931;-59
2022/04/03 07:04:37;;;;;;;;;;;2.50;99.90;;;;;;5096848;28;19928;-59
2022/04/03 07:07:03;;;;;;;;;;;2.60;99.90;;;;;;5097557;28;20306;-59
2022/04/03 07:09:29;;;;;;;;;;;2.70;99.90;;;;;;5078387;28;19928;-59
2022/04/03 07:11:54;;;;;;;;;;;2.70;99.90;;;;;;5096355;28;19931;-59
2022/04/03 07:14:20;;;;;;;;;;;2.70;99.90;;;;;;5095686;28;19928;-59
2022/04/03 07:16:46;;;;;;;;;;;2.70;99.90;;;;;;5096366;28;19924;-59
2022/04/03 07:19:11;;;;;;;;;;;2.70;99.90;;;;;;5089940;28;20015;-60
2022/04/03 07:21:37;;;;;;;;;;;2.80;99.90;;;;;;5086630;28;20019;-60
2022/04/03 07:24:04;;;;;;;;;;;2.90;99.90;;;;;;5085819;28;19928;-59
2022/04/03 07:26:31;;;;;;;;;;;2.90;99.90;;;;;;5094744;28;19924;-59
2022/04/03 07:28:56;;;;;;;;;;;3.00;99.90;;;;;;5094773;28;19928;-59
2022/04/03 07:31:22;;;;;;;;;;;3.10;99.90;;;;;;5090745;28;19994;-59
2022/04/03 07:33:48;;;;;;;;;;;3.30;99.90;;;;;;5067114;28;19932;-59
2022/04/03 07:36:14;;;;;;;;;;;3.30;99.90;;;;;;5087580;28;19938;-59
2022/04/03 07:38:39;;;;;;;;;;;3.50;99.90;;;;;;5094977;28;19974;-60
2022/04/03 07:41:05;;;;;;;;;;;3.60;99.90;;;;;;5094930;28;19924;-59
2022/04/03 07:43:32;;;;;;;;;;;3.70;99.90;;;;;;5087051;28;19982;-60
2022/04/03 07:45:58;;;;;;;;;;;3.80;99.90;;;;;;5084598;28;19971;-60
2022/04/03 07:48:24;;;;;;;;;;;4.00;99.90;;;;;;5094159;28;19935;-60
2022/04/03 07:50:51;;;;;;;;;;;4.00;99.90;;;;;;5096249;28;20007;-59
2022/04/03 07:53:17;;;;;;;;;;;4.10;99.90;;;;;;5094799;28;19932;-60
2022/04/03 07:55:42;;;;;;;;;;;4.30;99.90;;;;;;5095936;28;20439;-60
2022/04/03 07:58:08;;;;;;;;;;;4.40;99.90;;;;;;5096051;28;19935;-60
2022/04/03 08:00:34;;;;;;;;;;;4.60;99.90;;;;;;5091171;28;19924;-60
2022/04/03 08:02:59;;;;;;;;;;;4.70;99.90;;;;;;5086599;28;20282;-60
2022/04/03 08:05:25;;;;;;;;;;;4.70;99.90;;;;;;5088011;28;20409;-60
2022/04/03 08:07:51;;;;;;;;;;;4.90;99.90;;;;;;5084080;28;20023;-60
2022/04/03 08:10:18;;;;;;;;;;;4.90;99.90;;;;;;5089031;28;20413;-60
2022/04/03 08:12:44;;;;;;;;;;;5.00;99.90;;;;;;5082439;28;20414;-60
2022/04/03 08:15:10;;;;;;;;;;;5.20;99.90;;;;;;5075093;28;19924;-60
2022/04/03 08:17:42;;;;;;;;;;;5.30;99.90;;;;;;5075731;28;19993;-60
2022/04/03 08:20:09;;;;;;;;;;;5.40;99.90;;;;;;5080186;28;20298;-60
2022/04/03 08:22:37;;;;;;;;;;;5.50;99.90;;;;;;5091074;28;19965;-60
2022/04/03 08:25:05;;;;;;;;;;;5.60;99.90;;;;;;5095779;28;19928;-60
2022/04/03 08:27:44;;;;;;;;;;;5.80;99.90;;;;;;5095144;28;20388;-60
2022/04/03 08:30:10;;;;;;;;;;;5.90;99.90;;;;;;5095316;28;19924;-60
2022/04/03 08:32:36;;;;;;;;;;;6.00;99.90;;;;;;5094399;28;19975;-60
2022/04/03 08:35:02;;;;;;;;;;;6.00;99.90;;;;;;5094982;28;19968;-60
2022/04/03 08:37:28;;;;;;;;;;;6.10;99.90;;;;;;5094770;28;19927;-60
2022/04/03 08:39:53;;;;;;;;;;;6.30;99.90;;;;;;5095457;28;20027;-59
2022/04/03 08:42:19;;;;;;;;;;;6.40;99.90;;;;;;5093385;28;19970;-59
2022/04/03 08:44:45;;;;;;;;;;;6.60;99.90;;;;;;5094066;28;19971;-59
2022/04/03 08:47:12;;;;;;;;;;;6.60;99.90;;;;;;5094904;28;19975;-59
2022/04/03 08:49:40;;;;;;;;;;;7.10;99.90;;;;;;5091462;28;20374;-59
2022/04/03 08:52:07;;;;;;;;;;;6.50;99.90;;;;;;5095227;28;19924;-59
2022/04/03 08:54:33;;;;;;;;;;;6.50;99.90;;;;;;5095205;28;19928;-59
2022/04/03 08:56:59;;;;;;;;;;;6.70;99.90;;;;;;5094473;28;19982;-59
2022/04/03 08:59:25;;;;;;;;;;;7.00;99.90;;;;;;5095232;28;20303;-59
2022/04/03 09:01:50;;;;;;;;;;;6.90;99.90;;;;;;5094774;28;19947;-59
2022/04/03 09:04:17;;;;;;;;;;;6.60;99.90;;;;;;5094001;28;20006;-59
2022/04/03 09:06:54;;;;;;;;;;;6.40;99.90;;;;;;5093759;28;19924;-59
2022/04/03 09:09:21;;;;;;;;;;;6.20;99.90;;;;;;5082183;28;20358;-59
2022/04/03 09:12:05;;;;;;;;;;;6.10;99.90;;;;;;5083224;28;19932;-59
2022/04/03 09:14:30;;;;;;;;;;;6.20;99.90;;;;;;5090311;28;19924;-59
2022/04/03 09:16:56;;;;;;;;;;;6.20;99.90;;;;;;5094121;28;20392;-59
2022/04/03 09:19:32;;;;;;;;;;;6.40;99.90;;;;;;5094343;28;19935;-59
2022/04/03 09:21:57;;;;;;;;;;;6.60;99.90;;;;;;5097132;28;20376;-59
2022/04/03 09:24:23;;;;;;;;;;;6.80;99.90;;;;;;5093184;28;19996;-59
2022/04/03 09:26:56;;;;;;;;;;;7.00;99.90;;;;;;5094662;28;20031;-59
2022/04/03 09:29:22;;;;;;;;;;;7.10;99.90;;;;;;5094126;28;20010;-59
2022/04/03 09:31:47;;;;;;;;;;;7.30;99.90;;;;;;5092152;28;20342;-60
2022/04/03 09:34:15;;;;;;;;;;;7.30;99.90;;;;;;5094715;28;19924;-59
2022/04/03 09:36:41;;;;;;;;;;;7.60;99.90;;;;;;5092713;28;20395;-60
2022/04/03 09:39:09;;;;;;;;;;;7.70;99.90;;;;;;5079674;28;19924;-60
2022/04/03 09:41:55;;;;;;;;;;;8.00;99.90;;;;;;5073875;28;19931;-60
2022/04/03 09:44:30;;;;;;;;;;;7.90;99.90;;;;;;5079700;28;20015;-60
2022/04/03 09:47:11;;;;;;;;;;;7.50;99.90;;;;;;5082750;28;20263;-60
2022/04/03 09:49:37;;;;;;;;;;;7.30;99.90;;;;;;5085971;28;19933;-60
2022/04/03 09:52:03;;;;;;;;;;;7.50;99.90;;;;;;5089574;28;19969;-60
2022/04/03 09:54:29;;;;;;;;;;;7.70;99.90;;;;;;5094070;28;20279;-60
2022/04/03 09:56:55;;;;;;;;;;;7.60;99.90;;;;;;5077123;28;19928;-60
2022/04/03 09:59:21;;;;;;;;;;;7.30;99.90;;;;;;5091032;28;20381;-60
2022/04/03 10:01:55;;;;;;;;;;;7.50;99.90;;;;;;5093459;28;19928;-60
2022/04/03 10:04:22;;;;;;;;;;;7.80;99.90;;;;;;5081485;28;20354;-60
2022/04/03 10:06:48;;;;;;;;;;;8.10;99.90;;;;;;5082850;28;20407;-60
2022/04/03 10:09:15;;;;;;;;;;;8.10;99.90;;;;;;5093811;28;19928;-60
2022/04/03 10:11:41;;;;;;;;;;;7.90;99.90;;;;;;5093201;28;19924;-60
2022/04/03 10:14:08;;;;;;;;;;;7.70;99.90;;;;;;5092935;28;20324;-60
2022/04/03 10:16:34;;;;;;;;;;;7.70;99.90;;;;;;5093063;28;19985;-60
2022/04/03 10:19:00;;;;;;;;;;;7.90;99.90;;;;;;5093303;28;19928;-60
2022/04/03 10:21:36;;;;;;;;;;;7.80;99.90;;;;;;5092835;28;19931;-60
2022/04/03 10:24:06;;;;;;;;;;;7.50;99.90;;;;;;5088023;28;19925;-60
2022/04/03 10:26:34;;;;;;;;;;;7.30;99.90;;;;;;5093706;28;19924;-60
2022/04/03 10:29:00;;;;;;;;;;;7.40;99.90;;;;;;5093094;28;20420;-60
2022/04/03 10:31:26;;;;;;;;;;;8.40;99.90;;;;;;5093649;28;20298;-60
2022/04/03 10:33:52;;;;;;;;;;;9.30;99.90;;;;;;5092596;28;19931;-60
2022/04/03 10:36:25;;;;;;;;;;;9.60;95.00;;;;;;5091750;28;19931;-60
2022/04/03 10:39:00;;;;;;;;;;;9.90;98.50;;;;;;5093525;28;19924;-60
2022/04/03 10:41:27;;;;;;;;;;;;;;;;;;5092564;28;19939;-60
2022/04/03 10:44:09;;;;;;;;;;;11.00;97.10;;;;;;5092983;28;20014;-59
2022/04/03 10:46:55;;;;;;;;;;;11.40;91.30;;;;;;5092388;28;19931;-60
2022/04/03 10:49:28;;;;;;;;;;;11.00;90.90;;;;;;5090326;28;19924;-60
2022/04/03 10:51:57;;;;;;;;;;;9.80;92.70;;;;;;5092508;28;20447;-60
2022/04/03 10:54:28;;;;;;;;;;;9.00;94.40;;;;;;5091931;28;19967;-60
2022/04/03 10:57:14;;;;;;;;;;;8.30;98.50;;;;;;5092758;28;19920;-60
2022/04/03 10:59:39;;;;;;;;;;;8.30;99.60;;;;;;5092312;28;20019;-60
2022/04/03 11:02:14;;;;;;;;;;;9.40;96.50;;;;;;5092464;28;20427;-60
2022/04/03 11:04:39;;;;;;;;;;;10.50;98.10;;;;;;5092160;28;20357;-60
2022/04/03 11:07:12;;;;;;;;;;;10.50;93.90;;;;;;5092964;28;20041;-60
2022/04/03 11:09:40;;;;;;;;;;;9.70;91.60;;;;;;5092092;28;20309;-60
2022/04/03 11:12:05;;;;;;;;;;;9.00;91.70;;;;;;5092870;28;19928;-60
2022/04/03 11:14:51;;;;;;;;;;;8.80;94.50;;;;;;5092969;28;19970;-60
2022/04/03 11:17:16;;;;;;;;;;;9.70;92.50;;;;;;5091099;28;19947;-60
2022/04/03 11:19:44;;;;;;;;;;;9.50;86.70;;;;;;5091971;28;19925;-60
2022/04/03 11:22:13;;;;;;;;;;;9.30;92.80;;;;;;5095710;28;19930;-60
2022/04/03 11:24:39;;;;;;;;;;;9.50;92.40;;;;;;5090675;28;19975;-60
2022/04/03 11:27:05;;;;;;;;;;;9.00;99.90;;;;;;5081919;28;20014;-59
2022/04/03 11:29:31;;;;;;;;;;;8.40;99.90;;;;;;5083373;28;19970;-60
2022/04/03 11:31:57;;;;;;;;;;;7.80;99.90;;;;;;5090440;28;19927;-59
2022/04/03 11:34:28;;;;;;;;;;;7.60;99.90;;;;;;5088694;28;19967;-60
2022/04/03 11:36:54;;;;;;;;;;;;;;;;;;5071548;28;19928;-60
2022/04/03 11:39:20;;;;;;;;;;;7.80;99.90;;;;;;5071952;28;19975;-60
2022/04/03 11:41:50;;;;;;;;;;;8.10;99.90;;;;;;5072424;28;20349;-60
2022/04/03 11:44:16;;;;;;;;;;;8.40;99.90;;;;;;5081054;28;20866;-60
2022/04/03 11:46:43;;;;;;;;;;;9.30;99.90;;;;;;5091778;28;19924;-60
2022/04/03 11:49:11;;;;;;;;;;;10.00;97.20;;;;;;5085709;28;19973;-60
2022/04/03 11:51:37;;;;;;;;;;;9.90;94.40;;;;;;5084176;28;20424;-60
2022/04/03 11:54:03;;;;;;;;;;;9.80;96.10;;;;;;5092323;28;19924;-60
2022/04/03 11:56:31;;;;;;;;;;;9.60;97.00;;;;;;5096299;28;20370;-60
2022/04/03 11:58:57;;;;;;;;;;;9.80;96.10;;;;;;5095142;28;19932;-60
2022/04/03 12:01:24;;;;;;;;;;;9.80;92.10;;;;;;5095270;28;19924;-60
2022/04/03 12:03:58;;;;;;;;;;;9.50;93.10;;;;;;5095917;28;19924;-60
2022/04/03 12:06:23;;;;;;;;;;;9.30;94.70;;;;;;5095100;28;19924;-60
2022/04/03 12:08:49;;;;;;;;;;;10.00;94.70;;;;;;5094457;28;20370;-60
2022/04/03 12:11:15;;;;;;;;;;;10.30;96.00;;;;;;5094956;28;19931;-60
2022/04/03 12:13:41;;;;;;;;;;;10.90;78.80;;;;;;5094883;28;19932;-60
2022/04/03 12:16:07;;;;;;;;;;;11.00;71.70;;;;;;5094389;28;19971;-60
2022/04/03 12:18:52;;;;;;;;;;;11.20;76.90;;;;;;5093741;28;19924;-60
2022/04/03 12:21:17;;;;;;;;;;;11.70;73.80;;;;;;5093252;28;19927;-60
2022/04/03 12:24:03;;;;;;;;;;;11.60;74.70;;;;;;5093001;28;20033;-60
2022/04/03 12:26:29;;;;;;;;;;;11.20;74.60;;;;;;5094753;28;20043;-60
2022/04/03 12:28:56;;;;;;;;;;;11.30;73.00;;;;;;5094058;28;19924;-60
2022/04/03 12:31:26;;;;;;;;;;;11.00;73.80;;;;;;5095740;28;19924;-60
2022/04/03 12:34:02;;;;;;;;;;;10.20;79.90;;;;;;5094701;28;19924;-60
2022/04/03 12:36:34;;;;;;;;;;;9.30;81.60;;;;;;5093240;28;19956;-60
2022/04/03 12:39:00;;;;;;;;;;;8.70;91.10;;;;;;5094977;28;19928;-60
2022/04/03 12:41:26;;;;;;;;;;;9.40;90.30;;;;;;5094442;28;19932;-60
2022/04/03 12:43:55;;;;;;;;;;;10.60;86.00;;;;;;5093556;28;20050;-60
2022/04/03 12:46:21;;;;;;;;;;;10.80;83.10;;;;;;5094215;28;19948;-60
2022/04/03 12:48:51;;;;;;;;;;;9.70;94.60;;;;;;5085230;28;19924;-60
2022/04/03 12:51:16;;;;;;;;;;;9.30;98.60;;;;;;5074517;28;19978;-60
2022/04/03 12:53:49;;;;;;;;;;;10.20;96.70;;;;;;5074763;28;19928;-60
2022/04/03 12:56:15;;;;;;;;;;;10.80;92.70;;;;;;5083939;28;19924;-60
2022/04/03 12:58:43;;;;;;;;;;;10.40;91.30;;;;;;5093913;28;20387;-60
2022/04/03 13:01:12;;;;;;;;;;;9.20;95.60;;;;;;5095206;28;19979;-60
2022/04/03 13:03:39;;;;;;;;;;;8.60;98.40;;;;;;5094103;28;19924;-60
2022/04/03 13:06:05;;;;;;;;;;;8.20;99.50;;;;;;5094786;28;19971;-60
2022/04/03 13:08:44;;;;;;;;;;;8.00;99.90;;;;;;5094168;28;19971;-60
2022/04/03 13:11:10;;;;;;;;;;;8.00;99.90;;;;;;5094866;28;19924;-60
2022/04/03 13:13:37;;;;;;;;;;;7.60;98.20;;;;;;5094794;28;19931;-60
2022/04/03 13:16:03;;;;;;;;;;;8.30;99.00;;;;;;5093280;28;19924;-60
2022/04/03 13:18:29;;;;;;;;;;;8.20;99.90;;;;;;5095181;28;20392;-60
2022/04/03 13:20:57;;;;;;;;;;;7.70;99.90;;;;;;5093812;28;20301;-60
2022/04/03 13:23:23;;;;;;;;;;;7.50;99.90;;;;;;5096015;28;19925;-60
2022/04/03 13:25:49;;;;;;;;;;;7.40;99.90;;;;;;5084010;28;19931;-60
2022/04/03 13:28:16;;;;;;;;;;;7.40;99.90;;;;;;5073976;28;19925;-59
2022/04/03 13:30:43;;;;;;;;;;;7.30;99.90;;;;;;5085589;28;20002;-59
2022/04/03 13:33:09;;;;;;;;;;;7.60;99.90;;;;;;5094783;28;20011;-59
2022/04/03 13:35:38;;;;;;;;;;;7.70;99.90;;;;;;5094068;28;20421;-60
2022/04/03 13:38:05;;;;;;;;;;;7.80;99.90;;;;;;5093682;28;19920;-60
2022/04/03 13:40:31;;;;;;;;;;;7.90;99.90;;;;;;5094515;28;19924;-60
2022/04/03 13:42:57;;;;;;;;;;;8.70;99.80;;;;;;5094408;28;19947;-60
2022/04/03 13:45:56;;;;;;;;;;;9.50;97.90;;;;;;5088356;28;20286;-60
2022/04/03 13:48:09;;;;;;;;;;;9.10;97.30;;;;;;5084888;28;20010;-60
2022/04/03 13:50:35;;;;;;;;;;;8.40;98.10;;;;;;5091682;28;20058;-60
2022/04/03 13:53:01;;;;;;;;;;;8.60;98.10;;;;;;5087103;28;20375;-60
2022/04/03 13:55:27;;;;;;;;;;;8.90;97.40;;;;;;5092114;28;19957;-60
2022/04/03 13:57:53;;;;;;;;;;;8.70;98.10;;;;;;5092580;28;19928;-60
2022/04/03 14:00:20;;;;;;;;;;;8.70;99.90;;;;;;5093487;28;19936;-60
2022/04/03 14:02:46;;;;;;;;;;;9.40;96.10;;;;;;5093424;28;20325;-60
2022/04/03 14:05:12;;;;;;;;;;;10.20;91.30;;;;;;5091288;28;19924;-60
2022/04/03 14:07:37;;;;;;;;;;;10.60;91.00;;;;;;5093864;28;19924;-60
2022/04/03 14:10:03;;;;;;;;;;;10.20;92.70;;;;;;5093573;28;19924;-60
2022/04/03 14:12:29;;;;;;;;;;;10.30;96.50;;;;;;5090426;28;19996;-60
2022/04/03 14:14:54;;;;;;;;;;;11.50;90.30;;;;;;5092854;28;20005;-60
2022/04/03 14:17:20;;;;;;;;;;;12.00;86.40;;;;;;5093790;28;19924;-60
2022/04/03 14:19:46;;;;;;;;;;;12.00;80.20;;;;;;5092235;28;20487;-60
2022/04/03 14:22:11;;;;;;;;;;;11.50;80.90;;;;;;5097094;28;20332;-60
2022/04/03 14:24:39;;;;;;;;;;;11.20;81.60;;;;;;5092955;28;19931;-60
2022/04/03 14:27:04;;;;;;;;;;;11.00;81.60;;;;;;5092572;28;19924;-60